sensor_id;sensor_type;location;lat;lon;timestamp;temperature;humidity
19493;DHT22;9887;54.366;10.958;2023-08-08T00:02:23;15.20;99.90
19493;DHT22;9887;54.366;10.958;2023-08-08T00:04:51;15.20;99.90
19493;DHT22;9887;54.366;10.958;2023-08-08T00:07:18;15.20;99.90
19493;DHT22;9887;54.366;10.958;2023-08-08T00:09:46;15.20;99.90
19493;DHT22;9887;54.366;10.958;2023-08-08T00:12:14;15.20;99.90
19493;DHT22;9887;54.366;10.958;2023-08-08T00:14:42;15.20;99.90
19493;DHT22;9887;54.366;10.958;2023-08-08T00:17:12;15.20;99.90
19493;DHT22;9887;54.366;10.958;2023-08-08T00:19:40;15.10;99.90
19493;DHT22;9887;54.366;10.958;2023-08-08T00:22:07;15.10;99.90
19493;DHT22;9887;54.366;10.958;2023-08-08T00:24:35;15.20;99.90
19493;DHT22;9887;54.366;10.958;2023-08-08T00:27:04;15.20;99.90
19493;DHT22;9887;54.366;10.958;2023-08-08T00:29:32;15.10;99.90
19493;DHT22;9887;54.366;10.958;2023-08-08T00:32:00;15.10;99.90
19493;DHT22;9887;54.366;10.958;2023-08-08T00:34:29;15.10;99.90
19493;DHT22;9887;54.366;10.958;2023-08-08T00:36:57;15.10;99.90
19493;DHT22;9887;54.366;10.958;2023-08-08T00:39:25;15.10;99.90
19493;DHT22;9887;54.366;10.958;2023-08-08T00:41:53;15.10;99.90
19493;DHT22;9887;54.366;10.958;2023-08-08T00:44:21;15.10;99.90
19493;DHT22;9887;54.366;10.958;2023-08-08T00:46:49;15.00;99.90
19493;DHT22;9887;54.366;10.958;2023-08-08T00:49:17;15.00;99.90
19493;DHT22;9887;54.366;10.958;2023-08-08T00:51:46;15.00;99.90
19493;DHT22;9887;54.366;10.958;2023-08-08T00:54:16;15.00;99.90
19493;DHT22;9887;54.366;10.958;2023-08-08T00:56:44;15.00;99.90
19493;DHT22;9887;54.366;10.958;2023-08-08T00:59:14;15.00;99.90
19493;DHT22;9887;54.366;10.958;2023-08-08T01:01:43;15.00;99.90
19493;DHT22;9887;54.366;10.958;2023-08-08T01:04:11;14.90;99.90
19493;DHT22;9887;54.366;10.958;2023-08-08T01:06:43;14.90;99.90
19493;DHT22;9887;54.366;10.958;2023-08-08T01:09:21;14.90;99.90
19493;DHT22;9887;54.366;10.958;2023-08-08T01:11:55;14.90;99.90
19493;DHT22;9887;54.366;10.958;2023-08-08T01:14:26;14.90;99.90
19493;DHT22;9887;54.366;10.958;2023-08-08T01:16:56;14.80;99.90
19493;DHT22;9887;54.366;10.958;2023-08-08T01:19:28;14.80;99.90
19493;DHT22;9887;54.366;10.958;2023-08-08T01:22:01;14.80;99.90
19493;DHT22;9887;54.366;10.958;2023-08-08T01:24:32;14.80;99.90
19493;DHT22;9887;54.366;10.958;2023-08-08T01:27:04;14.80;99.90
19493;DHT22;9887;54.366;10.958;2023-08-08T01:29:33;14.80;99.90
19493;DHT22;9887;54.366;10.958;2023-08-08T01:32:01;14.80;99.90
19493;DHT22;9887;54.366;10.958;2023-08-08T01:34:29;14.80;99.90
19493;DHT22;9887;54.366;10.958;2023-08-08T01:37:02;14.70;99.90
19493;DHT22;9887;54.366;10.958;2023-08-08T01:39:33;14.70;99.90
19493;DHT22;9887;54.366;10.958;2023-08-08T01:42:01;14.70;99.90
19493;DHT22;9887;54.366;10.958;2023-08-08T01:44:30;14.70;99.90
19493;DHT22;9887;54.366;10.958;2023-08-08T01:46:59;14.70;99.90
19493;DHT22;9887;54.366;10.958;2023-08-08T01:49:28;14.70;99.90
19493;DHT22;9887;54.366;10.958;2023-08-08T01:51:56;14.70;99.90
19493;DHT22;9887;54.366;10.958;2023-08-08T01:54:24;14.70;99.90
19493;DHT22;9887;54.366;10.958;2023-08-08T01:56:53;14.60;99.90
19493;DHT22;9887;54.366;10.958;2023-08-08T01:59:21;14.60;99.90
19493;DHT22;9887;54.366;10.958;2023-08-08T02:01:50;14.60;99.90
19493;DHT22;9887;54.366;10.958;2023-08-08T02:04:18;14.60;99.90
19493;DHT22;9887;54.366;10.958;2023-08-08T02:06:46;14.60;99.90
19493;DHT22;9887;54.366;10.958;2023-08-08T02:09:14;14.60;99.90
19493;DHT22;9887;54.366;10.958;2023-08-08T02:11:42;14.50;99.90
19493;DHT22;9887;54.366;10.958;2023-08-08T02:14:12;14.60;99.90
19493;DHT22;9887;54.366;10.958;2023-08-08T02:16:39;14.50;99.90
19493;DHT22;9887;54.366;10.958;2023-08-08T02:19:10;14.50;99.90
19493;DHT22;9887;54.366;10.958;2023-08-08T02:21:37;14.50;99.90
19493;DHT22;9887;54.366;10.958;2023-08-08T02:24:05;14.50;99.90
19493;DHT22;9887;54.366;10.958;2023-08-08T02:26:33;14.50;99.90
19493;DHT22;9887;54.366;10.958;2023-08-08T02:29:05;14.40;99.90
19493;DHT22;9887;54.366;10.958;2023-08-08T02:31:34;14.50;99.90
19493;DHT22;9887;54.366;10.958;2023-08-08T02:34:02;14.40;99.90
19493;DHT22;9887;54.366;10.958;2023-08-08T02:36:30;14.40;99.90
19493;DHT22;9887;54.366;10.958;2023-08-08T02:39:01;14.40;99.90
19493;DHT22;9887;54.366;10.958;2023-08-08T02:41:30;14.40;99.90
19493;DHT22;9887;54.366;10.958;2023-08-08T02:43:58;14.40;99.90
19493;DHT22;9887;54.366;10.958;2023-08-08T02:46:26;14.40;99.90
19493;DHT22;9887;54.366;10.958;2023-08-08T02:48:55;14.40;99.90
19493;DHT22;9887;54.366;10.958;2023-08-08T02:51:23;14.40;99.90
19493;DHT22;9887;54.366;10.958;2023-08-08T02:53:51;14.40;99.90
19493;DHT22;9887;54.366;10.958;2023-08-08T02:56:19;14.40;99.90
19493;DHT22;9887;54.366;10.958;2023-08-08T02:58:49;14.40;99.90
19493;DHT22;9887;54.366;10.958;2023-08-08T03:01:17;14.40;99.90
19493;DHT22;9887;54.366;10.958;2023-08-08T03:03:46;14.40;99.90
19493;DHT22;9887;54.366;10.958;2023-08-08T03:06:19;14.40;99.90
19493;DHT22;9887;54.366;10.958;2023-08-08T03:08:47;14.40;99.90
19493;DHT22;9887;54.366;10.958;2023-08-08T03:11:15;14.30;99.90
19493;DHT22;9887;54.366;10.958;2023-08-08T03:13:43;14.30;99.90
19493;DHT22;9887;54.366;10.958;2023-08-08T03:16:11;14.40;99.90
19493;DHT22;9887;54.366;10.958;2023-08-08T03:18:40;14.30;99.90
19493;DHT22;9887;54.366;10.958;2023-08-08T03:21:08;14.30;99.90
19493;DHT22;9887;54.366;10.958;2023-08-08T03:23:37;14.30;99.90
19493;DHT22;9887;54.366;10.958;2023-08-08T03:26:05;14.30;99.90
19493;DHT22;9887;54.366;10.958;2023-08-08T03:28:33;14.30;99.90
19493;DHT22;9887;54.366;10.958;2023-08-08T03:31:02;14.30;99.90
19493;DHT22;9887;54.366;10.958;2023-08-08T03:33:32;14.30;99.90
19493;DHT22;9887;54.366;10.958;2023-08-08T03:36:02;14.30;99.90
19493;DHT22;9887;54.366;10.958;2023-08-08T03:38:30;14.30;99.90
19493;DHT22;9887;54.366;10.958;2023-08-08T03:41:00;14.30;99.90
19493;DHT22;9887;54.366;10.958;2023-08-08T03:43:28;14.30;99.90
19493;DHT22;9887;54.366;10.958;2023-08-08T03:45:55;14.30;99.90
19493;DHT22;9887;54.366;10.958;2023-08-08T03:48:23;14.20;99.90
19493;DHT22;9887;54.366;10.958;2023-08-08T03:50:51;14.20;99.90
19493;DHT22;9887;54.366;10.958;2023-08-08T03:53:19;14.30;99.90
19493;DHT22;9887;54.366;10.958;2023-08-08T03:55:49;14.20;99.90
19493;DHT22;9887;54.366;10.958;2023-08-08T03:58:18;14.20;99.90
19493;DHT22;9887;54.366;10.958;2023-08-08T04:00:46;14.30;99.90
19493;DHT22;9887;54.366;10.958;2023-08-08T04:03:16;14.20;99.90
19493;DHT22;9887;54.366;10.958;2023-08-08T04:05:45;14.30;99.90
19493;DHT22;9887;54.366;10.958;2023-08-08T04:08:14;14.30;99.90
19493;DHT22;9887;54.366;10.958;2023-08-08T04:10:43;14.30;99.90
19493;DHT22;9887;54.366;10.958;2023-08-08T04:13:11;14.30;99.90
19493;DHT22;9887;54.366;10.958;2023-08-08T04:15:40;14.20;99.90
19493;DHT22;9887;54.366;10.958;2023-08-08T04:18:08;14.20;99.90
19493;DHT22;9887;54.366;10.958;2023-08-08T04:20:38;14.20;99.90
19493;DHT22;9887;54.366;10.958;2023-08-08T04:23:06;14.10;99.90
19493;DHT22;9887;54.366;10.958;2023-08-08T04:25:34;14.20;99.90
19493;DHT22;9887;54.366;10.958;2023-08-08T04:28:03;14.20;99.90
19493;DHT22;9887;54.366;10.958;2023-08-08T04:30:31;14.30;99.90
19493;DHT22;9887;54.366;10.958;2023-08-08T04:33:00;14.30;99.90
19493;DHT22;9887;54.366;10.958;2023-08-08T04:35:28;14.30;99.90
19493;DHT22;9887;54.366;10.958;2023-08-08T04:37:56;14.40;99.90
19493;DHT22;9887;54.366;10.958;2023-08-08T04:40:24;14.40;99.90
19493;DHT22;9887;54.366;10.958;2023-08-08T04:42:52;14.40;99.90
19493;DHT22;9887;54.366;10.958;2023-08-08T04:45:20;14.40;99.90
19493;DHT22;9887;54.366;10.958;2023-08-08T04:47:48;14.40;99.90
19493;DHT22;9887;54.366;10.958;2023-08-08T04:50:18;14.40;99.90
19493;DHT22;9887;54.366;10.958;2023-08-08T04:52:46;14.40;99.90
19493;DHT22;9887;54.366;10.958;2023-08-08T04:55:14;14.40;99.90
19493;DHT22;9887;54.366;10.958;2023-08-08T04:57:41;14.50;99.90
19493;DHT22;9887;54.366;10.958;2023-08-08T05:00:10;14.50;99.90
19493;DHT22;9887;54.366;10.958;2023-08-08T05:02:38;14.50;99.90
19493;DHT22;9887;54.366;10.958;2023-08-08T05:05:08;14.50;99.90
19493;DHT22;9887;54.366;10.958;2023-08-08T05:07:38;14.50;99.90
19493;DHT22;9887;54.366;10.958;2023-08-08T05:10:06;14.50;99.90
19493;DHT22;9887;54.366;10.958;2023-08-08T05:12:34;14.50;99.90
19493;DHT22;9887;54.366;10.958;2023-08-08T05:15:03;14.50;99.90
19493;DHT22;9887;54.366;10.958;2023-08-08T05:17:31;14.50;99.90
19493;DHT22;9887;54.366;10.958;2023-08-08T05:19:59;14.60;99.90
19493;DHT22;9887;54.366;10.958;2023-08-08T05:22:27;14.60;99.90
19493;DHT22;9887;54.366;10.958;2023-08-08T05:24:56;14.60;99.90
19493;DHT22;9887;54.366;10.958;2023-08-08T05:27:24;14.70;99.90
19493;DHT22;9887;54.366;10.958;2023-08-08T05:29:52;14.70;99.90
19493;DHT22;9887;54.366;10.958;2023-08-08T05:32:20;14.70;99.90
19493;DHT22;9887;54.366;10.958;2023-08-08T05:34:50;14.80;99.90
19493;DHT22;9887;54.366;10.958;2023-08-08T05:37:18;14.80;99.90
19493;DHT22;9887;54.366;10.958;2023-08-08T05:39:46;14.80;99.90
19493;DHT22;9887;54.366;10.958;2023-08-08T05:42:15;14.90;99.90
19493;DHT22;9887;54.366;10.958;2023-08-08T05:44:43;15.00;99.90
19493;DHT22;9887;54.366;10.958;2023-08-08T05:47:11;15.00;99.90
19493;DHT22;9887;54.366;10.958;2023-08-08T05:49:39;15.10;99.90
19493;DHT22;9887;54.366;10.958;2023-08-08T05:52:08;15.20;99.90
19493;DHT22;9887;54.366;10.958;2023-08-08T05:54:37;15.30;99.90
19493;DHT22;9887;54.366;10.958;2023-08-08T05:57:05;15.30;99.90
19493;DHT22;9887;54.366;10.958;2023-08-08T05:59:34;15.40;99.90
19493;DHT22;9887;54.366;10.958;2023-08-08T06:02:02;15.50;99.90
19493;DHT22;9887;54.366;10.958;2023-08-08T06:04:31;15.60;99.90
19493;DHT22;9887;54.366;10.958;2023-08-08T06:06:59;15.60;99.90
19493;DHT22;9887;54.366;10.958;2023-08-08T06:09:27;15.60;99.90
19493;DHT22;9887;54.366;10.958;2023-08-08T06:11:55;15.60;99.90
19493;DHT22;9887;54.366;10.958;2023-08-08T06:14:23;15.70;99.90
19493;DHT22;9887;54.366;10.958;2023-08-08T06:16:53;15.80;99.90
19493;DHT22;9887;54.366;10.958;2023-08-08T06:19:20;15.80;99.90
19493;DHT22;9887;54.366;10.958;2023-08-08T06:21:48;15.70;99.90
19493;DHT22;9887;54.366;10.958;2023-08-08T06:24:16;15.80;99.90
19493;DHT22;9887;54.366;10.958;2023-08-08T06:26:44;15.80;99.90
19493;DHT22;9887;54.366;10.958;2023-08-08T06:29:12;15.80;99.90
19493;DHT22;9887;54.366;10.958;2023-08-08T06:31:41;15.90;99.90
19493;DHT22;9887;54.366;10.958;2023-08-08T06:34:10;16.00;99.90
19493;DHT22;9887;54.366;10.958;2023-08-08T06:36:38;16.00;99.90
19493;DHT22;9887;54.366;10.958;2023-08-08T06:39:06;16.00;99.90
19493;DHT22;9887;54.366;10.958;2023-08-08T06:41:34;16.00;99.90
19493;DHT22;9887;54.366;10.958;2023-08-08T06:44:02;16.00;99.90
19493;DHT22;9887;54.366;10.958;2023-08-08T06:46:30;16.00;99.90
19493;DHT22;9887;54.366;10.958;2023-08-08T06:48:58;16.00;99.90
19493;DHT22;9887;54.366;10.958;2023-08-08T06:51:27;15.90;99.90
19493;DHT22;9887;54.366;10.958;2023-08-08T06:53:55;15.90;99.90
19493;DHT22;9887;54.366;10.958;2023-08-08T06:56:23;15.90;99.90
19493;DHT22;9887;54.366;10.958;2023-08-08T06:58:52;15.90;99.90
19493;DHT22;9887;54.366;10.958;2023-08-08T07:01:20;15.80;99.90
19493;DHT22;9887;54.366;10.958;2023-08-08T07:03:48;15.80;99.90
19493;DHT22;9887;54.366;10.958;2023-08-08T07:06:17;15.80;99.90
19493;DHT22;9887;54.366;10.958;2023-08-08T07:08:46;15.80;99.90
19493;DHT22;9887;54.366;10.958;2023-08-08T07:11:14;15.80;99.90
19493;DHT22;9887;54.366;10.958;2023-08-08T07:13:42;15.80;99.90
19493;DHT22;9887;54.366;10.958;2023-08-08T07:16:10;15.80;99.90
19493;DHT22;9887;54.366;10.958;2023-08-08T07:18:38;15.80;99.90
19493;DHT22;9887;54.366;10.958;2023-08-08T07:21:06;15.90;99.90
19493;DHT22;9887;54.366;10.958;2023-08-08T07:23:34;16.00;99.90
19493;DHT22;9887;54.366;10.958;2023-08-08T07:26:03;16.00;99.90
19493;DHT22;9887;54.366;10.958;2023-08-08T07:28:31;16.00;99.90
19493;DHT22;9887;54.366;10.958;2023-08-08T07:30:59;16.10;99.90
19493;DHT22;9887;54.366;10.958;2023-08-08T07:33:27;16.10;99.90
19493;DHT22;9887;54.366;10.958;2023-08-08T07:35:55;16.10;99.90
19493;DHT22;9887;54.366;10.958;2023-08-08T07:38:23;16.20;99.90
19493;DHT22;9887;54.366;10.958;2023-08-08T07:40:51;16.30;99.90
19493;DHT22;9887;54.366;10.958;2023-08-08T07:43:20;16.40;99.90
19493;DHT22;9887;54.366;10.958;2023-08-08T07:45:48;16.50;99.90
19493;DHT22;9887;54.366;10.958;2023-08-08T07:48:16;16.60;99.90
19493;DHT22;9887;54.366;10.958;2023-08-08T07:50:45;16.60;99.90
19493;DHT22;9887;54.366;10.958;2023-08-08T07:53:13;16.70;99.90
19493;DHT22;9887;54.366;10.958;2023-08-08T07:55:41;16.80;99.90
19493;DHT22;9887;54.366;10.958;2023-08-08T07:58:08;16.80;99.90
19493;DHT22;9887;54.366;10.958;2023-08-08T08:00:39;16.90;99.90
19493;DHT22;9887;54.366;10.958;2023-08-08T08:03:07;17.10;99.90
19493;DHT22;9887;54.366;10.958;2023-08-08T08:05:36;17.20;99.90
19493;DHT22;9887;54.366;10.958;2023-08-08T08:08:04;17.20;99.90
19493;DHT22;9887;54.366;10.958;2023-08-08T08:10:33;17.30;99.90
19493;DHT22;9887;54.366;10.958;2023-08-08T08:13:01;17.40;99.90
19493;DHT22;9887;54.366;10.958;2023-08-08T08:15:29;17.50;99.90
19493;DHT22;9887;54.366;10.958;2023-08-08T08:17:58;17.50;99.90
19493;DHT22;9887;54.366;10.958;2023-08-08T08:20:26;17.40;99.90
19493;DHT22;9887;54.366;10.958;2023-08-08T08:22:54;17.00;99.90
19493;DHT22;9887;54.366;10.958;2023-08-08T08:25:22;16.90;99.90
19493;DHT22;9887;54.366;10.958;2023-08-08T08:27:50;16.80;99.90
19493;DHT22;9887;54.366;10.958;2023-08-08T08:30:18;16.60;99.90
19493;DHT22;9887;54.366;10.958;2023-08-08T08:32:47;16.50;99.90
19493;DHT22;9887;54.366;10.958;2023-08-08T08:35:16;16.60;99.90
19493;DHT22;9887;54.366;10.958;2023-08-08T08:37:44;16.70;99.90
19493;DHT22;9887;54.366;10.958;2023-08-08T08:40:13;16.80;99.90
19493;DHT22;9887;54.366;10.958;2023-08-08T08:42:43;17.10;99.90
19493;DHT22;9887;54.366;10.958;2023-08-08T08:45:11;17.30;99.90
19493;DHT22;9887;54.366;10.958;2023-08-08T08:47:41;17.40;99.90
19493;DHT22;9887;54.366;10.958;2023-08-08T08:50:10;17.70;99.90
19493;DHT22;9887;54.366;10.958;2023-08-08T08:52:39;17.80;99.90
19493;DHT22;9887;54.366;10.958;2023-08-08T08:55:08;17.90;99.90
19493;DHT22;9887;54.366;10.958;2023-08-08T08:57:36;18.00;99.90
19493;DHT22;9887;54.366;10.958;2023-08-08T09:00:06;18.10;99.90
19493;DHT22;9887;54.366;10.958;2023-08-08T09:02:35;18.10;99.90
19493;DHT22;9887;54.366;10.958;2023-08-08T09:05:04;18.10;99.90
19493;DHT22;9887;54.366;10.958;2023-08-08T09:07:33;18.00;99.90
19493;DHT22;9887;54.366;10.958;2023-08-08T09:10:03;18.10;99.90
19493;DHT22;9887;54.366;10.958;2023-08-08T09:12:33;18.20;99.90
19493;DHT22;9887;54.366;10.958;2023-08-08T09:15:04;18.30;99.90
19493;DHT22;9887;54.366;10.958;2023-08-08T09:17:33;18.20;99.90
19493;DHT22;9887;54.366;10.958;2023-08-08T09:20:14;18.10;99.90
19493;DHT22;9887;54.366;10.958;2023-08-08T09:22:43;18.00;99.90
19493;DHT22;9887;54.366;10.958;2023-08-08T09:25:13;17.90;99.90
19493;DHT22;9887;54.366;10.958;2023-08-08T09:27:41;17.70;99.90
19493;DHT22;9887;54.366;10.958;2023-08-08T09:30:11;17.60;99.90
19493;DHT22;9887;54.366;10.958;2023-08-08T09:32:39;17.70;99.90
19493;DHT22;9887;54.366;10.958;2023-08-08T09:35:09;17.80;99.90
19493;DHT22;9887;54.366;10.958;2023-08-08T09:37:38;18.00;99.90
19493;DHT22;9887;54.366;10.958;2023-08-08T09:40:07;18.00;99.90
19493;DHT22;9887;54.366;10.958;2023-08-08T09:42:41;18.10;99.90
19493;DHT22;9887;54.366;10.958;2023-08-08T09:45:09;18.10;99.90
19493;DHT22;9887;54.366;10.958;2023-08-08T09:47:38;18.00;99.90
19493;DHT22;9887;54.366;10.958;2023-08-08T09:50:07;18.00;99.90
19493;DHT22;9887;54.366;10.958;2023-08-08T09:52:36;18.10;99.90
19493;DHT22;9887;54.366;10.958;2023-08-08T09:55:06;18.30;99.90
19493;DHT22;9887;54.366;10.958;2023-08-08T09:57:36;18.30;99.90
19493;DHT22;9887;54.366;10.958;2023-08-08T10:00:08;18.40;99.90
19493;DHT22;9887;54.366;10.958;2023-08-08T10:02:43;18.40;99.90
19493;DHT22;9887;54.366;10.958;2023-08-08T10:05:12;18.60;99.90
19493;DHT22;9887;54.366;10.958;2023-08-08T10:07:41;18.70;99.90
19493;DHT22;9887;54.366;10.958;2023-08-08T10:10:10;18.70;99.90
19493;DHT22;9887;54.366;10.958;2023-08-08T10:12:38;18.70;99.90
19493;DHT22;9887;54.366;10.958;2023-08-08T10:15:10;18.70;99.90
19493;DHT22;9887;54.366;10.958;2023-08-08T10:17:39;18.70;99.90
19493;DHT22;9887;54.366;10.958;2023-08-08T10:20:09;18.70;99.90
19493;DHT22;9887;54.366;10.958;2023-08-08T10:22:42;18.70;99.90
19493;DHT22;9887;54.366;10.958;2023-08-08T10:25:17;18.60;99.90
19493;DHT22;9887;54.366;10.958;2023-08-08T10:27:46;18.50;99.90
19493;DHT22;9887;54.366;10.958;2023-08-08T10:30:15;18.60;99.90
19493;DHT22;9887;54.366;10.958;2023-08-08T10:32:45;18.60;99.90
19493;DHT22;9887;54.366;10.958;2023-08-08T10:35:14;18.60;99.90
19493;DHT22;9887;54.366;10.958;2023-08-08T10:37:51;18.60;99.90
19493;DHT22;9887;54.366;10.958;2023-08-08T10:40:20;18.60;99.90
19493;DHT22;9887;54.366;10.958;2023-08-08T10:42:48;18.70;99.90
19493;DHT22;9887;54.366;10.958;2023-08-08T10:45:17;18.70;99.90
19493;DHT22;9887;54.366;10.958;2023-08-08T10:47:45;18.70;99.90
19493;DHT22;9887;54.366;10.958;2023-08-08T10:50:14;18.80;99.90
19493;DHT22;9887;54.366;10.958;2023-08-08T10:52:54;18.80;99.90
19493;DHT22;9887;54.366;10.958;2023-08-08T10:55:24;18.80;99.90
19493;DHT22;9887;54.366;10.958;2023-08-08T10:57:57;18.80;99.90
19493;DHT22;9887;54.366;10.958;2023-08-08T11:00:28;18.90;99.90
19493;DHT22;9887;54.366;10.958;2023-08-08T11:02:57;18.90;99.90
19493;DHT22;9887;54.366;10.958;2023-08-08T11:05:28;18.90;99.90
19493;DHT22;9887;54.366;10.958;2023-08-08T11:07:57;19.00;99.90
19493;DHT22;9887;54.366;10.958;2023-08-08T11:10:26;19.10;99.90
19493;DHT22;9887;54.366;10.958;2023-08-08T11:12:59;19.20;99.90
19493;DHT22;9887;54.366;10.958;2023-08-08T11:15:29;19.30;99.90
19493;DHT22;9887;54.366;10.958;2023-08-08T11:18:01;19.40;99.90
19493;DHT22;9887;54.366;10.958;2023-08-08T11:20:30;19.30;99.90
19493;DHT22;9887;54.366;10.958;2023-08-08T11:22:59;19.30;99.90
19493;DHT22;9887;54.366;10.958;2023-08-08T11:25:29;19.20;99.90
19493;DHT22;9887;54.366;10.958;2023-08-08T11:27:57;19.20;99.90
19493;DHT22;9887;54.366;10.958;2023-08-08T11:30:30;19.10;99.90
19493;DHT22;9887;54.366;10.958;2023-08-08T11:32:58;19.00;99.90
19493;DHT22;9887;54.366;10.958;2023-08-08T11:35:30;18.90;99.90
19493;DHT22;9887;54.366;10.958;2023-08-08T11:37:59;18.70;99.90
19493;DHT22;9887;54.366;10.958;2023-08-08T11:40:28;18.50;99.90
19493;DHT22;9887;54.366;10.958;2023-08-08T11:42:58;18.40;99.90
19493;DHT22;9887;54.366;10.958;2023-08-08T11:45:26;18.10;99.90
19493;DHT22;9887;54.366;10.958;2023-08-08T11:47:56;17.70;99.90
19493;DHT22;9887;54.366;10.958;2023-08-08T11:50:25;17.60;99.90
19493;DHT22;9887;54.366;10.958;2023-08-08T11:52:55;17.50;99.90
19493;DHT22;9887;54.366;10.958;2023-08-08T11:55:27;17.60;99.90
19493;DHT22;9887;54.366;10.958;2023-08-08T11:57:55;17.60;99.90
19493;DHT22;9887;54.366;10.958;2023-08-08T12:00:26;17.70;99.90
19493;DHT22;9887;54.366;10.958;2023-08-08T12:02:56;17.70;99.90
19493;DHT22;9887;54.366;10.958;2023-08-08T12:05:25;17.70;99.90
19493;DHT22;9887;54.366;10.958;2023-08-08T12:07:53;17.70;99.90
19493;DHT22;9887;54.366;10.958;2023-08-08T12:10:22;17.80;99.90
19493;DHT22;9887;54.366;10.958;2023-08-08T12:12:53;17.80;99.90
19493;DHT22;9887;54.366;10.958;2023-08-08T12:15:22;17.80;99.90
19493;DHT22;9887;54.366;10.958;2023-08-08T12:17:50;17.90;99.90
19493;DHT22;9887;54.366;10.958;2023-08-08T12:20:20;17.90;99.90
19493;DHT22;9887;54.366;10.958;2023-08-08T12:22:48;18.00;99.90
19493;DHT22;9887;54.366;10.958;2023-08-08T12:25:16;17.90;99.90
19493;DHT22;9887;54.366;10.958;2023-08-08T12:27:44;17.80;99.90
19493;DHT22;9887;54.366;10.958;2023-08-08T12:30:13;17.80;99.90
19493;DHT22;9887;54.366;10.958;2023-08-08T12:32:41;17.80;99.90
19493;DHT22;9887;54.366;10.958;2023-08-08T12:35:09;17.70;99.90
19493;DHT22;9887;54.366;10.958;2023-08-08T12:37:38;17.60;99.90
19493;DHT22;9887;54.366;10.958;2023-08-08T12:40:07;17.60;99.90
19493;DHT22;9887;54.366;10.958;2023-08-08T12:42:36;17.60;99.90
19493;DHT22;9887;54.366;10.958;2023-08-08T12:45:05;17.70;99.90
19493;DHT22;9887;54.366;10.958;2023-08-08T12:47:33;17.60;99.90
19493;DHT22;9887;54.366;10.958;2023-08-08T12:50:03;17.70;99.90
19493;DHT22;9887;54.366;10.958;2023-08-08T12:52:31;17.70;99.90
19493;DHT22;9887;54.366;10.958;2023-08-08T12:55:01;17.70;99.90
19493;DHT22;9887;54.366;10.958;2023-08-08T12:57:29;17.70;99.90
19493;DHT22;9887;54.366;10.958;2023-08-08T12:59:57;17.70;99.90
19493;DHT22;9887;54.366;10.958;2023-08-08T13:02:25;17.70;99.90
19493;DHT22;9887;54.366;10.958;2023-08-08T13:04:53;17.70;99.90
19493;DHT22;9887;54.366;10.958;2023-08-08T13:07:21;17.70;99.90
19493;DHT22;9887;54.366;10.958;2023-08-08T13:09:49;17.70;99.90
19493;DHT22;9887;54.366;10.958;2023-08-08T13:12:19;17.60;99.90
19493;DHT22;9887;54.366;10.958;2023-08-08T13:14:47;17.60;99.90
19493;DHT22;9887;54.366;10.958;2023-08-08T13:17:15;17.60;99.90
19493;DHT22;9887;54.366;10.958;2023-08-08T13:19:44;17.60;99.90
19493;DHT22;9887;54.366;10.958;2023-08-08T13:22:12;17.60;99.90
19493;DHT22;9887;54.366;10.958;2023-08-08T13:24:40;17.60;99.90
19493;DHT22;9887;54.366;10.958;2023-08-08T13:27:08;17.60;99.90
19493;DHT22;9887;54.366;10.958;2023-08-08T13:29:38;17.60;99.90
19493;DHT22;9887;54.366;10.958;2023-08-08T13:32:06;17.60;99.90
19493;DHT22;9887;54.366;10.958;2023-08-08T13:34:34;17.60;99.90
19493;DHT22;9887;54.366;10.958;2023-08-08T13:37:02;17.60;99.90
19493;DHT22;9887;54.366;10.958;2023-08-08T13:39:30;17.60;99.90
19493;DHT22;9887;54.366;10.958;2023-08-08T13:41:58;17.30;99.90
19493;DHT22;9887;54.366;10.958;2023-08-08T13:44:26;17.00;99.90
19493;DHT22;9887;54.366;10.958;2023-08-08T13:46:56;16.90;99.90
19493;DHT22;9887;54.366;10.958;2023-08-08T13:49:24;16.70;99.90
19493;DHT22;9887;54.366;10.958;2023-08-08T13:51:53;16.60;99.90
19493;DHT22;9887;54.366;10.958;2023-08-08T13:54:21;16.60;99.90
19493;DHT22;9887;54.366;10.958;2023-08-08T13:59:18;16.30;99.90
19493;DHT22;9887;54.366;10.958;2023-08-08T14:01:45;16.20;99.90
19493;DHT22;9887;54.366;10.958;2023-08-08T14:04:15;16.10;99.90
19493;DHT22;9887;54.366;10.958;2023-08-08T14:06:43;16.00;99.90
19493;DHT22;9887;54.366;10.958;2023-08-08T14:09:12;16.00;99.90
19493;DHT22;9887;54.366;10.958;2023-08-08T14:11:44;16.00;99.90
19493;DHT22;9887;54.366;10.958;2023-08-08T14:14:12;16.10;99.90
19493;DHT22;9887;54.366;10.958;2023-08-08T14:16:40;16.10;99.90
19493;DHT22;9887;54.366;10.958;2023-08-08T14:19:08;16.10;99.90
19493;DHT22;9887;54.366;10.958;2023-08-08T14:21:37;16.20;99.90
19493;DHT22;9887;54.366;10.958;2023-08-08T14:24:06;16.10;99.90
19493;DHT22;9887;54.366;10.958;2023-08-08T14:26:33;16.10;99.90
19493;DHT22;9887;54.366;10.958;2023-08-08T14:29:02;16.10;99.90
19493;DHT22;9887;54.366;10.958;2023-08-08T14:31:30;16.10;99.90
19493;DHT22;9887;54.366;10.958;2023-08-08T14:34:06;16.10;99.90
19493;DHT22;9887;54.366;10.958;2023-08-08T14:36:34;16.10;99.90
19493;DHT22;9887;54.366;10.958;2023-08-08T14:39:03;16.20;99.90
19493;DHT22;9887;54.366;10.958;2023-08-08T14:41:31;16.10;99.90
19493;DHT22;9887;54.366;10.958;2023-08-08T14:43:59;16.10;99.90
19493;DHT22;9887;54.366;10.958;2023-08-08T14:46:27;16.10;99.90
19493;DHT22;9887;54.366;10.958;2023-08-08T14:48:56;16.10;99.90
19493;DHT22;9887;54.366;10.958;2023-08-08T14:51:24;16.20;99.90
19493;DHT22;9887;54.366;10.958;2023-08-08T14:53:52;16.20;99.90
19493;DHT22;9887;54.366;10.958;2023-08-08T14:56:21;16.30;99.90
19493;DHT22;9887;54.366;10.958;2023-08-08T14:58:49;16.40;99.90
19493;DHT22;9887;54.366;10.958;2023-08-08T15:01:17;16.40;99.90
19493;DHT22;9887;54.366;10.958;2023-08-08T15:03:45;16.50;99.90
19493;DHT22;9887;54.366;10.958;2023-08-08T15:06:13;16.50;99.90
19493;DHT22;9887;54.366;10.958;2023-08-08T15:08:42;16.50;99.90
19493;DHT22;9887;54.366;10.958;2023-08-08T15:11:10;16.50;99.90
19493;DHT22;9887;54.366;10.958;2023-08-08T15:13:40;16.50;99.90
19493;DHT22;9887;54.366;10.958;2023-08-08T15:16:08;16.50;99.90
19493;DHT22;9887;54.366;10.958;2023-08-08T15:18:36;16.50;99.90
19493;DHT22;9887;54.366;10.958;2023-08-08T15:21:04;16.50;99.90
19493;DHT22;9887;54.366;10.958;2023-08-08T15:23:32;16.50;99.90
19493;DHT22;9887;54.366;10.958;2023-08-08T15:26:00;16.50;99.90
19493;DHT22;9887;54.366;10.958;2023-08-08T15:28:28;16.40;99.90
19493;DHT22;9887;54.366;10.958;2023-08-08T15:30:57;16.50;99.90
19493;DHT22;9887;54.366;10.958;2023-08-08T15:33:25;16.40;99.90
19493;DHT22;9887;54.366;10.958;2023-08-08T15:35:53;16.40;99.90
19493;DHT22;9887;54.366;10.958;2023-08-08T15:38:21;16.30;99.90
19493;DHT22;9887;54.366;10.958;2023-08-08T15:40:49;16.30;99.90
19493;DHT22;9887;54.366;10.958;2023-08-08T15:43:17;16.30;99.90